createdAt,value
2023-01-02T00:03:53.066Z,6.40
2023-01-02T00:07:56.694Z,7.70
2023-01-02T00:12:00.764Z,5.50
2023-01-02T00:16:04.591Z,10.20
2023-01-02T00:20:03.256Z,5.90
2023-01-02T00:24:06.867Z,7.20
2023-01-02T00:28:10.946Z,6.60
2023-01-02T00:32:08.405Z,7.30
2023-01-02T00:36:12.142Z,7.40
2023-01-02T00:40:20.057Z,8.50
2023-01-02T00:44:23.678Z,7.00
2023-01-02T00:48:36.282Z,11.50
2023-01-02T00:52:39.941Z,8.40
2023-01-02T00:57:04.027Z,6.60
2023-01-02T01:01:07.850Z,9.70
2023-01-02T01:05:14.157Z,6.30
2023-01-02T01:09:18.437Z,7.80
2023-01-02T01:13:11.780Z,11.80
2023-01-02T01:17:14.501Z,6.40
2023-01-02T01:21:26.577Z,7.90
2023-01-02T01:25:30.725Z,6.20
2023-01-02T01:34:07.344Z,7.80
2023-01-02T01:38:20.762Z,7.40
2023-01-02T01:42:23.497Z,6.80
2023-01-02T01:46:36.140Z,10.60
2023-01-02T01:50:43.547Z,7.50
2023-01-02T01:55:01.089Z,6.20
2023-01-02T01:59:07.936Z,8.30
2023-01-02T02:03:08.818Z,6.70
2023-01-02T02:11:00.236Z,6.80
2023-01-02T02:15:03.168Z,6.10
2023-01-02T02:23:54.851Z,6.80
2023-01-02T02:28:04.365Z,6.30
2023-01-02T02:32:25.426Z,5.90
2023-01-02T02:36:47.494Z,6.30
2023-01-02T02:41:00.272Z,9.00
2023-01-02T02:45:08.293Z,9.50
2023-01-02T02:49:30.328Z,9.00
2023-01-02T02:53:46.598Z,6.70
2023-01-02T02:57:56.423Z,8.30
2023-01-02T03:02:09.259Z,8.40
2023-01-02T03:06:15.663Z,9.30
2023-01-02T03:10:31.266Z,10.10
2023-01-02T03:14:47.430Z,6.20
2023-01-02T03:23:45.527Z,5.50
2023-01-02T03:27:53.731Z,8.80
2023-01-02T03:31:56.605Z,8.50
2023-01-02T03:36:00.329Z,7.50
2023-01-02T03:40:09.925Z,6.20
2023-01-02T03:44:13.524Z,7.40
2023-01-02T03:48:19.933Z,6.10
2023-01-02T03:52:25.792Z,8.90
2023-01-02T03:56:41.292Z,8.90
2023-01-02T04:00:57.962Z,8.30
2023-01-02T04:05:06.892Z,11.10
2023-01-02T04:09:22.668Z,8.60
2023-01-02T04:13:36.240Z,6.70
2023-01-02T04:17:47.305Z,7.80
2023-01-02T04:21:53.521Z,8.90
2023-01-02T04:26:15.699Z,6.20
2023-01-02T04:30:19.345Z,7.20
2023-01-02T04:34:26.135Z,8.90
2023-01-02T04:38:28.716Z,8.00
2023-01-02T04:42:32.341Z,5.10
2023-01-02T04:46:35.980Z,9.40
2023-01-02T04:50:40.086Z,8.80
2023-01-02T04:54:43.690Z,7.00
2023-01-02T04:58:55.052Z,9.40
2023-01-02T05:02:58.721Z,6.50
2023-01-02T05:07:04.578Z,5.50
2023-01-02T05:11:08.245Z,5.30
2023-01-02T05:15:11.872Z,6.30
2023-01-02T05:19:15.501Z,7.30
2023-01-02T05:28:13.841Z,6.00
2023-01-02T05:32:09.988Z,11.50
2023-01-02T05:36:05.812Z,7.90
2023-01-02T05:40:26.907Z,4.90
2023-01-02T05:44:31.019Z,6.40
2023-01-02T05:48:24.737Z,5.00
2023-01-02T05:52:30.758Z,4.70
2023-01-02T05:56:34.843Z,7.10
2023-01-02T06:00:38.699Z,4.50
2023-01-02T06:09:31.825Z,9.50
2023-01-02T06:13:34.465Z,4.80
2023-01-02T06:22:32.965Z,4.00
2023-01-02T06:26:34.257Z,4.30
2023-01-02T06:30:44.490Z,4.30
2023-01-02T06:34:57.539Z,4.10
2023-01-02T06:39:01.199Z,3.90
2023-01-02T06:43:00.255Z,3.90
2023-01-02T06:47:13.227Z,4.30
2023-01-02T06:51:16.772Z,4.90
2023-01-02T07:00:09.078Z,3.80
2023-01-02T07:04:11.681Z,4.90
2023-01-02T07:08:15.334Z,3.60
2023-01-02T07:12:11.739Z,5.40
2023-01-02T07:16:15.499Z,3.50
2023-01-02T07:20:20.225Z,5.40
2023-01-02T07:24:24.265Z,6.40
2023-01-02T07:28:47.481Z,4.90
2023-01-02T07:32:43.476Z,3.90
2023-01-02T07:36:58.229Z,3.60
2023-01-02T07:41:03.590Z,3.70
2023-01-02T07:45:15.003Z,4.10
2023-01-02T07:52:51.825Z,5.90
2023-01-02T07:56:55.419Z,3.80
2023-01-02T08:00:53.740Z,3.70
2023-01-02T08:04:57.536Z,3.90
2023-01-02T08:08:56.815Z,3.10
2023-01-02T08:12:53.902Z,5.60
2023-01-02T08:16:53.753Z,4.50
2023-01-02T08:20:57.872Z,3.70
2023-01-02T08:33:51.228Z,3.00
2023-01-02T08:37:54.943Z,3.80
2023-01-02T08:42:11.219Z,4.00
2023-01-02T08:46:15.807Z,3.30
2023-01-02T08:50:30.626Z,3.30
2023-01-02T08:54:35.141Z,3.00
2023-01-02T08:58:43.056Z,4.40
2023-01-02T09:07:16.083Z,3.10
2023-01-02T09:11:20.232Z,3.80
2023-01-02T09:15:24.251Z,2.90
2023-01-02T09:19:30.715Z,3.50
2023-01-02T09:23:34.916Z,3.90
2023-01-02T09:27:38.504Z,3.60
2023-01-02T09:31:53.942Z,3.40
2023-01-02T09:35:58.209Z,4.80
2023-01-02T09:40:01.844Z,3.00
2023-01-02T09:44:08.711Z,3.10
2023-01-02T09:48:11.844Z,3.90
2023-01-02T09:52:09.238Z,3.60
2023-01-02T09:56:31.873Z,3.40
2023-01-02T10:00:43.077Z,3.40
2023-01-02T10:05:00.981Z,6.80
2023-01-02T10:14:27.982Z,3.30
2023-01-02T10:18:41.292Z,3.00
2023-01-02T10:22:45.067Z,2.70
2023-01-02T10:26:58.314Z,3.30
2023-01-02T10:31:20.154Z,5.80
2023-01-02T10:35:22.662Z,5.80
2023-01-02T10:39:26.340Z,2.50
2023-01-02T10:43:19.993Z,2.80
2023-01-02T10:47:23.735Z,2.70
2023-01-02T10:51:27.441Z,3.60
2023-01-02T10:55:41.902Z,3.20
2023-01-02T10:59:45.964Z,3.20
2023-01-02T11:03:57.715Z,2.80
2023-01-02T11:11:53.677Z,4.70
2023-01-02T11:16:12.883Z,3.20
2023-01-02T11:20:19.599Z,3.40
2023-01-02T11:24:27.861Z,3.70
2023-01-02T11:28:34.507Z,2.90
2023-01-02T11:32:38.453Z,2.80
2023-01-02T11:36:54.516Z,3.40
2023-01-02T11:41:07.356Z,3.20
2023-01-02T11:50:07.755Z,4.40
2023-01-02T11:54:14.270Z,4.40
2023-01-02T11:58:20.550Z,3.20
2023-01-02T12:02:39.452Z,4.10
2023-01-02T12:06:45.072Z,2.90
2023-01-02T12:10:47.130Z,4.60
2023-01-02T12:15:02.630Z,2.70
2023-01-02T12:19:15.082Z,3.00
2023-01-02T12:23:28.317Z,3.50
2023-01-02T12:27:47.226Z,4.70
2023-01-02T12:32:00.044Z,3.20
2023-01-02T12:36:23.200Z,3.40
2023-01-02T12:40:26.973Z,3.90
2023-01-02T12:44:49.116Z,3.60
2023-01-02T12:49:05.345Z,3.50
2023-01-02T12:53:18.023Z,3.30
2023-01-02T12:57:39.817Z,3.90
2023-01-02T13:01:55.652Z,3.20
2023-01-02T13:05:59.371Z,4.40
2023-01-02T13:10:01.990Z,3.70
2023-01-02T13:13:59.845Z,3.70
2023-01-02T13:18:01.937Z,7.90
2023-01-02T13:22:14.783Z,4.70
2023-01-02T13:26:18.527Z,3.50
2023-01-02T13:31:44.686Z,3.70
2023-01-02T13:34:57.556Z,3.70
2023-01-02T13:39:11.632Z,3.60
2023-01-02T13:43:27.489Z,4.20
2023-01-02T13:47:34.342Z,3.90
2023-01-02T13:51:39.093Z,4.30
2023-01-02T13:55:47.425Z,7.40
2023-01-02T14:00:06.533Z,4.30
2023-01-02T14:04:26.497Z,4.10
2023-01-02T14:08:30.728Z,3.90
2023-01-02T14:12:34.625Z,3.90
2023-01-02T14:16:42.047Z,3.70
2023-01-02T14:20:51.507Z,3.70
2023-01-02T14:24:54.548Z,3.80
2023-01-02T14:29:07.177Z,3.70
2023-01-02T14:33:16.527Z,3.80
2023-01-02T14:37:09.128Z,3.50
2023-01-02T14:41:27.530Z,4.80
2023-01-02T14:45:34.140Z,3.50
2023-01-02T14:49:46.722Z,4.80
2023-01-02T14:54:05.754Z,3.80
2023-01-02T14:58:09.413Z,5.00
2023-01-02T15:02:13.132Z,3.60
2023-01-02T15:06:19.932Z,3.80
2023-01-02T15:10:26.506Z,3.20
2023-01-02T15:14:47.268Z,4.90
2023-01-02T15:19:07.137Z,3.60
2023-01-02T15:23:03.330Z,4.70
2023-01-02T15:27:09.885Z,3.70
2023-01-02T15:31:25.870Z,3.70
2023-01-02T15:35:29.507Z,4.50
2023-01-02T15:39:37.404Z,3.70
2023-01-02T15:43:42.639Z,3.80
2023-01-02T15:47:46.489Z,4.10
2023-01-02T15:51:50.112Z,4.90
2023-01-02T15:55:54.426Z,3.70
2023-01-02T16:00:03.787Z,4.60
2023-01-02T16:04:06.615Z,3.50
2023-01-02T16:08:13.245Z,4.10
2023-01-02T16:12:22.822Z,4.10
2023-01-02T16:16:26.945Z,4.70
2023-01-02T16:20:33.395Z,4.80
2023-01-02T16:24:37.206Z,4.00
2023-01-02T16:33:30.191Z,4.00
2023-01-02T16:37:57.408Z,6.10
2023-01-02T16:42:14.657Z,7.70
2023-01-02T16:46:18.322Z,4.60
2023-01-02T16:50:33.168Z,6.10
2023-01-02T16:54:41.956Z,4.30
2023-01-02T16:58:45.745Z,5.40
2023-01-02T17:02:47.613Z,6.60
2023-01-02T17:06:57.686Z,4.80
2023-01-02T17:11:01.791Z,4.60
2023-01-02T17:15:05.496Z,4.20
2023-01-02T17:19:09.173Z,3.70
2023-01-02T17:23:21.972Z,6.00
2023-01-02T17:27:26.328Z,8.30
2023-01-02T17:31:30.161Z,4.30
2023-01-02T17:35:16.569Z,5.40
2023-01-02T17:39:35.786Z,6.70
2023-01-02T17:43:39.454Z,6.90
2023-01-02T17:48:05.469Z,5.10
2023-01-02T17:52:11.596Z,5.40
2023-01-02T17:56:21.375Z,5.80
2023-01-02T18:00:26.342Z,4.60
2023-01-02T18:04:30.032Z,5.00
2023-01-02T18:08:33.722Z,5.00
2023-01-02T18:12:36.835Z,4.30
2023-01-02T18:16:29.487Z,5.80
2023-01-02T18:20:41.277Z,5.10
2023-01-02T18:24:44.925Z,5.00
2023-01-02T18:29:09.714Z,5.80
2023-01-02T18:33:19.786Z,7.40
2023-01-02T18:37:23.428Z,4.20
2023-01-02T18:41:31.621Z,4.80
2023-01-02T18:47:04.095Z,4.20
2023-01-02T18:55:05.706Z,3.70
2023-01-02T19:24:20.853Z,3.80
2023-01-02T19:28:24.610Z,3.80
2023-01-02T19:32:27.962Z,5.10
2023-01-02T19:36:33.395Z,3.60
2023-01-02T19:40:37.061Z,4.20
2023-01-02T19:44:49.023Z,4.30
2023-01-02T19:48:45.267Z,3.30
2023-01-02T19:52:55.840Z,3.40
2023-01-02T19:56:52.325Z,5.50
2023-01-02T20:01:02.272Z,4.90
2023-01-02T20:05:06.154Z,3.10
2023-01-02T20:09:09.808Z,5.80
2023-01-02T20:13:13.597Z,3.10
2023-01-02T20:17:17.169Z,5.20
2023-01-02T20:21:19.617Z,4.10
2023-01-02T20:25:15.666Z,2.60
2023-01-02T20:29:08.459Z,2.80
2023-01-02T20:33:12.068Z,4.00
2023-01-02T20:37:15.824Z,3.00
2023-01-02T20:41:19.472Z,2.30
2023-01-02T20:45:13.212Z,0.80
2023-01-02T20:49:17.085Z,0.70
2023-01-02T20:53:08.334Z,0.50
2023-01-02T20:57:01.932Z,4.60
2023-01-02T21:01:05.611Z,0.50
2023-01-02T21:05:09.229Z,0.30
2023-01-02T21:09:06.577Z,0.50
2023-01-02T21:13:01.192Z,0.50
2023-01-02T21:16:53.400Z,0.60
2023-01-02T21:20:49.513Z,0.80
2023-01-02T21:24:43.130Z,3.20
2023-01-02T21:28:46.843Z,0.20
2023-01-02T21:32:50.520Z,1.10
2023-01-02T21:36:54.143Z,0.70
2023-01-02T21:40:57.818Z,2.50
2023-01-02T21:44:58.986Z,0.50
2023-01-02T21:49:02.637Z,0.30
2023-01-02T21:52:59.159Z,0.30
2023-01-02T21:57:02.740Z,0.30
2023-01-02T22:00:56.085Z,0.80
2023-01-02T22:04:59.726Z,0.90
2023-01-02T22:09:03.523Z,1.30
2023-01-02T22:13:07.179Z,0.40
2023-01-02T22:17:10.853Z,0.40
2023-01-02T22:21:14.448Z,0.70
2023-01-02T22:25:18.266Z,0.40
2023-01-02T22:29:21.846Z,0.70
2023-01-02T22:33:25.550Z,0.50
2023-01-02T22:37:29.171Z,0.60
2023-01-02T22:41:32.893Z,0.50
2023-01-02T22:45:35.081Z,0.40
2023-01-02T22:49:30.715Z,0.40
2023-01-02T22:53:34.343Z,0.50
2023-01-02T22:57:32.234Z,0.70
2023-01-02T23:01:28.802Z,0.60
2023-01-02T23:05:03.804Z,0.50
2023-01-02T23:09:07.490Z,0.50
2023-01-02T23:13:11.247Z,1.00
2023-01-02T23:17:16.974Z,1.00
2023-01-02T23:21:20.614Z,0.90
2023-01-02T23:25:24.237Z,1.20
2023-01-02T23:29:27.953Z,1.30
2023-01-02T23:33:30.050Z,1.10
2023-01-02T23:37:33.823Z,1.20
2023-01-02T23:41:37.458Z,1.30
2023-01-02T23:45:41.139Z,1.20
2023-01-02T23:49:27.832Z,1.80
2023-01-02T23:53:34.341Z,1.50
2023-01-02T23:58:01.082Z,1.90
